Time;durP1;ratioP1;P1;durP2;ratioP2;P2;SDS_P1;SDS_P2;PMS_P1;PMS_P2;Temp;Humidity;BMP_temperature;BMP_pressure;BME280_temperature;BME280_humidity;BME280_pressure;Samples;Min_cycle;Max_cycle;Signal;HPM_P1;HPM_P2
2022/03/15 00:00:47;;;;;;;62.65;31.75;;;;;;;1.30;57.53;101687.66;1764050;81;25329;-73
2022/03/15 00:03:14;;;;;;;62.50;30.48;;;;;;;1.31;57.56;101683.14;1763890;81;25889;-73
2022/03/15 00:05:40;;;;;;;67.42;31.68;;;;;;;1.29;57.24;101686.05;1763893;81;25262;-73
2022/03/15 00:08:07;;;;;;;58.85;31.02;;;;;;;1.28;57.22;101692.92;1763573;81;27300;-73
2022/03/15 00:10:34;;;;;;;58.28;29.35;;;;;;;1.27;57.13;101689.94;1761436;81;25697;-74
2022/03/15 00:13:00;;;;;;;55.23;28.67;;;;;;;1.26;57.05;101684.29;1760791;81;25674;-74
2022/03/15 00:15:27;;;;;;;59.23;30.60;;;;;;;1.25;57.22;101685.34;1760781;81;25934;-74
2022/03/15 00:17:54;;;;;;;59.80;32.45;;;;;;;1.23;57.15;101689.55;1760658;81;25610;-74
2022/03/15 00:20:24;;;;;;;63.00;32.53;;;;;;;1.23;57.59;101689.55;1760704;81;27950;-73
2022/03/15 00:22:55;;;;;;;61.35;33.58;;;;;;;1.23;57.44;101684.73;1760712;81;25671;-74
2022/03/15 00:25:20;;;;;;;56.50;30.27;;;;;;;1.20;57.60;101682.49;1760525;81;25626;-74
2022/03/15 00:27:51;;;;;;;62.20;32.78;;;;;;;1.17;57.51;101677.58;1760673;81;25931;-73
2022/03/15 00:30:18;;;;;;;64.80;31.82;;;;;;;1.17;57.40;101686.91;1760640;81;25386;-73
2022/03/15 00:32:45;;;;;;;64.37;30.90;;;;;;;1.11;58.15;101677.92;1760326;81;27341;-73
2022/03/15 00:35:18;;;;;;;59.53;31.27;;;;;;;1.10;58.01;101680.27;1760427;81;25761;-74
2022/03/15 00:37:46;;;;;;;66.10;33.35;;;;;;;1.08;58.01;101686.34;1760537;81;25648;-74
2022/03/15 00:40:14;;;;;;;64.70;32.05;;;;;;;1.07;57.70;101679.36;1760295;81;25931;-73
2022/03/15 00:42:46;;;;;;;64.40;32.85;;;;;;;1.07;58.07;101674.03;1760550;81;25390;-73
2022/03/15 00:45:11;;;;;;;64.80;32.90;;;;;;;1.06;57.67;101666.55;1759717;81;27391;-73
2022/03/15 00:47:37;;;;;;;58.48;31.90;;;;;;;1.04;57.66;101664.63;1740229;81;25700;-73
2022/03/15 00:50:04;;;;;;;59.73;33.00;;;;;;;1.01;57.21;101660.23;1757648;81;25639;-73
2022/03/15 00:52:30;;;;;;;72.78;34.45;;;;;;;0.93;58.26;101653.28;1706452;84;26673;-73
2022/03/15 00:54:57;;;;;;;63.25;35.85;;;;;;;0.88;58.02;101651.77;1757313;81;25706;-72
2022/03/15 00:57:24;;;;;;;63.78;33.95;;;;;;;0.84;58.04;101654.56;1757625;81;27337;-74
2022/03/15 00:59:50;;;;;;;67.40;32.30;;;;;;;0.78;58.30;101649.54;1757402;81;25672;-73
2022/03/15 01:02:16;;;;;;;59.10;33.42;;;;;;;0.76;58.49;101642.80;1739966;81;25448;-73
2022/03/15 01:04:42;;;;;;;65.08;32.23;;;;;;;0.74;58.01;101651.80;1757420;81;26024;-73
2022/03/15 01:07:11;;;;;;;59.38;33.38;;;;;;;0.71;58.33;101648.22;1757657;81;32341;-73
2022/03/15 01:09:36;;;;;;;63.25;33.20;;;;;;;0.70;58.41;101644.47;1740483;81;27402;-73
2022/03/15 01:12:03;;;;;;;62.38;32.48;;;;;;;0.67;58.17;101647.55;1756527;81;25779;-74
2022/03/15 01:14:30;;;;;;;62.43;32.38;;;;;;;0.63;58.45;101645.81;1757959;81;25393;-74
2022/03/15 01:16:57;;;;;;;63.95;32.40;;;;;;;0.61;58.48;101651.84;1757887;81;25971;-74
2022/03/15 01:19:24;;;;;;;63.90;32.45;;;;;;;0.58;58.80;101646.12;1757835;81;25655;-74
2022/03/15 01:21:53;;;;;;;66.30;34.58;;;;;;;0.53;58.28;101648.09;1757809;81;27323;-73
2022/03/15 01:24:19;;;;;;;68.87;32.83;;;;;;;0.51;58.72;101646.97;1757873;81;30008;-73
2022/03/15 01:26:47;;;;;;;60.23;31.40;;;;;;;0.47;59.23;101647.06;1757824;81;25403;-73
2022/03/15 01:29:13;;;;;;;74.22;35.63;;;;;;;0.46;59.13;101645.94;1740626;81;26060;-73
2022/03/15 01:31:40;;;;;;;60.03;29.80;;;;;;;0.46;59.01;101645.94;1757816;81;25598;-73
2022/03/15 01:34:07;;;;;;;67.80;34.70;;;;;;;0.44;58.81;101639.48;1757789;81;26898;-73
2022/03/15 01:36:34;;;;;;;70.57;34.73;;;;;;;0.45;59.06;101654.97;1757745;81;25649;-74
2022/03/15 01:39:00;;;;;;;66.17;34.95;;;;;;;0.42;59.26;101657.52;1757826;81;25388;-74
2022/03/15 01:41:27;;;;;;;69.20;32.17;;;;;;;0.41;59.65;101651.07;1757744;81;25568;-74
2022/03/15 01:43:53;;;;;;;74.42;32.25;;;;;;;0.42;59.14;101648.20;1757835;81;25387;-73
2022/03/15 01:46:19;;;;;;;68.60;34.23;;;;;;;0.41;59.09;101643.09;1757661;81;27385;-73
2022/03/15 01:48:45;;;;;;;68.37;36.15;;;;;;;0.39;58.91;101638.48;1757788;81;25460;-73
2022/03/15 01:51:15;;;;;;;72.65;35.78;;;;;;;0.37;59.01;101641.35;1758090;81;25444;-73
2022/03/15 01:53:42;;;;;;;59.60;35.17;;;;;;;0.33;59.04;101640.14;1757920;81;26458;-73
2022/03/15 01:56:08;;;;;;;67.35;34.63;;;;;;;0.29;59.11;101641.08;1757805;81;25451;-73
2022/03/15 01:58:34;;;;;;;61.63;32.13;;;;;;;0.26;58.95;101636.69;1757776;81;27397;-73
2022/03/15 02:01:00;;;;;;;71.67;34.78;;;;;;;0.17;59.36;101630.73;1757710;81;25627;-73
2022/03/15 02:03:26;;;;;;;63.85;30.80;;;;;;;0.10;59.45;101640.08;1757865;81;25592;-73
2022/03/15 02:05:53;;;;;;;65.57;33.73;;;;;;;0.05;59.59;101634.56;1757790;81;25975;-73
2022/03/15 02:08:19;;;;;;;69.03;33.08;;;;;;;-0.01;59.61;101635.37;1757853;81;25390;-72
2022/03/15 02:10:45;;;;;;;69.00;34.60;;;;;;;-0.05;59.76;101630.97;1757909;81;27222;-72
2022/03/15 02:13:13;;;;;;;66.80;33.10;;;;;;;-0.09;59.51;101631.58;1757788;81;25535;-73
2022/03/15 02:15:39;;;;;;;67.12;31.68;;;;;;;-0.12;59.98;101633.31;1757855;81;25573;-73
2022/03/15 02:18:08;;;;;;;62.08;33.13;;;;;;;-0.15;59.93;101633.72;1757791;81;25976;-73
2022/03/15 02:20:35;;;;;;;78.02;36.85;;;;;;;-0.21;59.46;101635.36;1758035;81;25616;-73
2022/03/15 02:23:01;;;;;;;63.33;34.60;;;;;;;-0.22;60.04;101648.38;1766124;81;27317;-73
2022/03/15 02:25:27;;;;;;;70.97;35.25;;;;;;;-0.26;60.40;101650.59;1757715;81;25447;-73
2022/03/15 02:27:53;;;;;;;71.25;35.68;;;;;;;-0.33;60.52;101644.45;1757790;81;25406;-73
2022/03/15 02:30:23;;;;;;;65.97;33.48;;;;;;;-0.37;60.65;101636.59;1757739;81;26191;-73
2022/03/15 02:32:49;;;;;;;66.53;33.73;;;;;;;-0.41;60.14;101638.00;1757892;81;25544;-73
2022/03/15 02:35:16;;;;;;;68.28;33.23;;;;;;;-0.43;60.26;101639.52;1757757;81;27310;-73
2022/03/15 02:37:43;;;;;;;64.35;34.60;;;;;;;-0.46;60.40;101639.95;1757665;81;25629;-72
2022/03/15 02:40:11;;;;;;;69.80;34.92;;;;;;;-0.49;60.73;101643.53;1757748;81;25553;-72
2022/03/15 02:42:37;;;;;;;70.05;35.40;;;;;;;-0.51;60.41;101642.40;1757688;81;25978;-73
2022/03/15 02:45:05;;;;;;;66.65;32.25;;;;;;;-0.54;61.01;101636.15;1757798;81;25541;-74
2022/03/15 02:47:31;;;;;;;68.47;34.40;;;;;;;-0.59;60.95;101639.92;1757778;81;27326;-73
2022/03/15 02:49:57;;;;;;;72.25;35.75;;;;;;;-0.60;60.87;101639.09;1757731;81;25536;-73
2022/03/15 02:52:25;;;;;;;72.42;36.48;;;;;;;-0.62;61.51;101636.34;1757846;81;25610;-74
2022/03/15 02:54:52;;;;;;;70.87;36.20;;;;;;;-0.67;60.88;101630.80;1757729;81;26000;-74
2022/03/15 02:57:21;;;;;;;71.10;35.38;;;;;;;-0.71;61.08;101632.23;1757788;81;25139;-73
2022/03/15 02:59:47;;;;;;;71.65;37.50;;;;;;;-0.75;61.57;101634.45;1757756;81;27323;-73
2022/03/15 03:02:13;;;;;;;74.87;34.65;;;;;;;-0.79;61.53;101635.88;1757614;81;25639;-73
2022/03/15 03:04:40;;;;;;;72.60;37.13;;;;;;;-0.82;61.59;101636.28;1757778;81;25406;-73
2022/03/15 03:07:10;;;;;;;69.15;36.77;;;;;;;-0.84;61.46;101644.96;1757702;81;25933;-74
2022/03/15 03:09:36;;;;;;;71.60;35.13;;;;;;;-0.87;62.03;101644.88;1757789;81;25597;-73
2022/03/15 03:12:03;;;;;;;73.75;34.78;;;;;;;-0.86;61.92;101650.47;1740442;81;26975;-73
2022/03/15 03:14:29;;;;;;;71.97;37.53;;;;;;;-0.85;61.75;101656.11;1757640;81;25706;-73
2022/03/15 03:16:58;;;;;;;79.12;39.13;;;;;;;-0.85;61.73;101655.27;1757770;81;25449;-73
2022/03/15 03:19:24;;;;;;;81.57;40.08;;;;;;;-0.86;61.79;101657.63;1758088;81;25873;-73
2022/03/15 03:21:50;;;;;;;79.65;39.63;;;;;;;-0.89;62.44;101658.02;1758011;81;25631;-73
2022/03/15 03:24:23;;;;;;;75.52;37.15;;;;;;;-0.93;62.20;101650.97;1757970;81;27922;-73
2022/03/15 03:26:45;;;;;;;84.28;39.78;;;;;;;-0.95;61.96;101649.03;1757049;81;25810;-73
2022/03/15 03:29:11;;;;;;;76.02;37.70;;;;;;;-1.00;62.25;101634.20;1757918;81;25446;-74
2022/03/15 03:31:42;;;;;;;78.07;38.17;;;;;;;-1.00;62.05;101636.33;1757857;81;26049;-74
2022/03/15 03:34:12;;;;;;;80.95;39.10;;;;;;;-1.04;62.16;101635.59;1757937;81;25432;-74
2022/03/15 03:36:40;;;;;;;82.12;38.65;;;;;;;-1.05;62.15;101640.61;1757919;81;27380;-73
2022/03/15 03:39:07;;;;;;;81.75;39.67;;;;;;;-1.08;62.26;101647.13;1757800;81;25549;-73
2022/03/15 03:41:34;;;;;;;76.60;40.05;;;;;;;-1.10;62.48;101654.47;1757901;81;25438;-73
2022/03/15 03:44:00;;;;;;;74.47;38.83;;;;;;;-1.14;62.41;101639.45;1757859;81;25937;-73
2022/03/15 03:46:31;;;;;;;84.75;38.05;;;;;;;-1.17;62.44;101641.16;1759029;81;25596;-74
2022/03/15 03:48:58;;;;;;;79.35;39.08;;;;;;;-1.18;62.81;101646.67;1760883;81;27354;-74
2022/03/15 03:51:24;;;;;;;83.22;40.15;;;;;;;-1.21;62.46;101645.73;1760748;81;25542;-74
2022/03/15 03:53:51;;;;;;;84.58;40.75;;;;;;;-1.22;62.82;101639.61;1760821;81;25620;-74
2022/03/15 03:56:17;;;;;;;86.28;40.85;;;;;;;-1.23;63.11;101640.62;1760817;81;26009;-73
2022/03/15 03:58:43;;;;;;;76.92;39.13;;;;;;;-1.23;62.79;101639.80;1760846;81;25552;-73
2022/03/15 04:01:09;;;;;;;80.17;40.08;;;;;;;-1.26;62.43;101631.74;1760842;81;27972;-73
2022/03/15 04:03:36;;;;;;;82.40;39.85;;;;;;;-1.29;62.88;101625.98;1760745;81;25642;-73
2022/03/15 04:06:03;;;;;;;85.30;40.03;;;;;;;-1.30;62.64;101631.00;1760835;81;25453;-73
2022/03/15 04:08:31;;;;;;;81.82;39.85;;;;;;;-1.35;62.64;101635.56;1760789;81;26474;-73
2022/03/15 04:10:58;;;;;;;89.03;40.60;;;;;;;-1.37;62.97;101654.34;1760794;81;25403;-73
2022/03/15 04:13:26;;;;;;;82.53;39.18;;;;;;;-1.39;62.62;101656.89;1760819;81;27472;-73
2022/03/15 04:15:53;;;;;;;84.85;40.25;;;;;;;-1.41;63.17;101650.96;1760736;81;25384;-73
2022/03/15 04:18:20;;;;;;;90.75;40.45;;;;;;;-1.43;63.03;101643.68;1760804;81;25530;-73
2022/03/15 04:20:46;;;;;;;85.28;41.60;;;;;;;-1.46;63.14;101647.56;1760827;81;26427;-73
2022/03/15 04:23:14;;;;;;;79.17;39.08;;;;;;;-1.47;63.20;101643.25;1760858;81;25541;-74
2022/03/15 04:25:41;;;;;;;85.47;40.45;;;;;;;-1.48;63.01;101646.10;1760787;81;27301;-74
2022/03/15 04:28:08;;;;;;;82.67;40.45;;;;;;;-1.52;62.77;101643.02;1760757;81;25523;-74
2022/03/15 04:30:35;;;;;;;80.97;40.08;;;;;;;-1.54;63.26;101647.71;1760842;81;25457;-74
2022/03/15 04:33:01;;;;;;;92.82;39.70;;;;;;;-1.57;63.42;101644.92;1760834;81;25630;-74
2022/03/15 04:35:30;;;;;;;83.90;39.70;;;;;;;-1.59;63.26;101650.94;1760840;81;25422;-74
2022/03/15 04:37:57;;;;;;;82.12;40.40;;;;;;;-1.62;63.48;101646.02;1760995;81;27277;-74
2022/03/15 04:40:24;;;;;;;83.50;39.85;;;;;;;-1.64;63.44;101640.61;1760708;81;25554;-74
2022/03/15 04:42:52;;;;;;;79.17;40.05;;;;;;;-1.68;63.00;101637.52;1760815;81;25539;-74
2022/03/15 04:45:19;;;;;;;84.22;39.42;;;;;;;-1.70;63.09;101640.37;1760822;81;25924;-74
2022/03/15 04:47:46;;;;;;;77.90;38.83;;;;;;;-1.74;63.10;101636.97;1760760;81;25445;-74
2022/03/15 04:50:13;;;;;;;80.42;39.67;;;;;;;-1.76;63.46;101638.48;1760805;81;27839;-74
2022/03/15 04:52:40;;;;;;;86.22;42.03;;;;;;;-1.76;63.78;101637.67;1760650;81;25350;-74
2022/03/15 04:55:08;;;;;;;85.25;42.17;;;;;;;-1.77;63.86;101642.16;1760811;81;25422;-74
2022/03/15 04:57:35;;;;;;;80.10;39.90;;;;;;;-1.77;64.46;101637.34;1760755;81;25933;-74
2022/03/15 05:00:08;;;;;;;84.35;41.85;;;;;;;-1.78;64.32;101637.86;1760837;81;25556;-74
2022/03/15 05:02:34;;;;;;;85.70;42.78;;;;;;;-1.78;64.24;101643.17;1760793;81;27900;-73
2022/03/15 05:05:01;;;;;;;84.10;41.33;;;;;;;-1.77;64.41;101643.98;1760679;81;25601;-74
2022/03/15 05:07:28;;;;;;;87.00;41.25;;;;;;;-1.76;64.44;101641.65;1760809;81;25547;-73
2022/03/15 05:12:39;;;;;;;87.92;42.20;;;;;;;-1.76;64.85;101646.95;1760969;81;25352;-74
2022/03/15 05:15:07;;;;;;;79.55;36.38;;;;;;;-1.73;64.71;101638.10;1760968;81;27485;-74
2022/03/15 05:17:34;;;;;;;80.62;41.20;;;;;;;-1.70;64.73;101640.89;1760699;81;25701;-74
2022/03/15 05:20:02;;;;;;;89.92;42.38;;;;;;;-1.65;64.46;101642.45;1760797;81;25534;-74
2022/03/15 05:22:28;;;;;;;81.37;40.95;;;;;;;-1.63;64.43;101634.30;1760717;81;25925;-74
2022/03/15 05:24:54;;;;;;;81.82;41.48;;;;;;;-1.63;64.46;101632.45;1760804;81;25619;-73
2022/03/15 05:27:21;;;;;;;91.82;41.37;;;;;;;-1.62;64.73;101638.06;1760768;81;27237;-73
2022/03/15 05:29:47;;;;;;;80.57;38.13;;;;;;;-1.59;64.51;101633.69;1760740;81;25369;-73
2022/03/15 05:32:13;;;;;;;79.85;37.78;;;;;;;-1.57;64.67;101634.31;1760740;81;25537;-73
2022/03/15 05:34:40;;;;;;;80.57;36.13;;;;;;;-1.55;64.86;101627.00;1761074;81;26086;-73
2022/03/15 05:37:08;;;;;;;78.57;36.73;;;;;;;-1.44;64.77;101627.46;1761193;81;25366;-73
2022/03/15 05:39:35;;;;;;;82.57;40.65;;;;;;;-1.35;64.94;101634.23;1761161;81;27304;-73
2022/03/15 05:42:03;;;;;;;80.75;40.40;;;;;;;-1.26;64.84;101630.41;1761054;81;25586;-73
2022/03/15 05:44:29;;;;;;;78.95;39.03;;;;;;;-1.19;64.70;101629.09;1761164;81;25179;-73
2022/03/15 05:46:58;;;;;;;83.50;40.12;;;;;;;-1.13;64.58;101628.31;1760100;81;26432;-73
2022/03/15 05:49:24;;;;;;;78.07;42.75;;;;;;;-1.07;64.65;101629.34;1757851;81;25520;-73
2022/03/15 05:51:51;;;;;;;79.95;38.60;;;;;;;-1.02;64.65;101621.11;1757750;81;27517;-73
2022/03/15 05:54:17;;;;;;;75.83;37.30;;;;;;;-0.96;64.63;101615.50;1757724;81;25349;-73
2022/03/15 05:56:45;;;;;;;82.08;36.60;;;;;;;-0.86;64.46;101621.25;1757764;81;25431;-72
2022/03/15 05:59:11;;;;;;;72.67;37.93;;;;;;;-0.73;64.37;101618.31;1757742;81;25999;-73
2022/03/15 06:01:37;;;;;;;79.15;37.67;;;;;;;-0.60;64.25;101623.14;1757840;81;25403;-73
2022/03/15 06:04:05;;;;;;;79.22;37.80;;;;;;;-0.46;64.08;101631.14;1757772;81;28048;-72
2022/03/15 06:06:32;;;;;;;71.25;35.85;;;;;;;-0.32;63.92;101632.81;1757690;81;25377;-73
2022/03/15 06:08:58;;;;;;;76.70;35.63;;;;;;;-0.18;63.77;101642.12;1757809;81;25609;-73
2022/03/15 06:11:24;;;;;;;71.92;37.38;;;;;;;-0.04;63.43;101645.08;1740401;81;26611;-73
2022/03/15 06:13:50;;;;;;;81.08;39.40;;;;;;;0.09;63.12;101650.92;1757817;81;25537;-72
2022/03/15 06:16:17;;;;;;;75.25;39.35;;;;;;;0.25;63.00;101649.67;1757770;81;27870;-72
2022/03/15 06:18:43;;;;;;;78.60;40.12;;;;;;;0.43;62.79;101641.05;1757733;81;25705;-69
2022/03/15 06:21:10;;;;;;;83.05;38.85;;;;;;;0.60;62.89;101640.09;1757797;81;25393;-74
2022/03/15 06:23:37;;;;;;;75.40;39.50;;;;;;;0.81;62.45;101643.80;1757747;81;26690;-74
2022/03/15 06:26:04;;;;;;;82.22;40.05;;;;;;;1.02;62.26;101637.37;1740367;81;25677;-75
2022/03/15 06:28:30;;;;;;;83.27;38.88;;;;;;;1.23;61.69;101645.56;1757571;81;27497;-75
2022/03/15 06:31:07;;;;;;;70.28;34.10;;;;;;;1.45;61.69;101646.58;1757716;81;25393;-75
2022/03/15 06:33:33;;;;;;;60.00;29.02;;;;;;;1.73;61.00;101655.50;1757671;81;25628;-76
2022/03/15 06:36:00;;;;;;;73.00;35.78;;;;;;;2.03;61.54;101646.87;1757920;81;25916;-75
2022/03/15 06:38:26;;;;;;;66.37;33.10;;;;;;;2.34;60.32;101649.95;1757949;81;25515;-75
2022/03/15 06:40:52;;;;;;;69.45;32.65;;;;;;;2.60;60.17;101652.86;1757872;81;27325;-75
2022/03/15 06:43:19;;;;;;;66.72;28.70;;;;;;;2.87;59.22;101648.56;1757728;81;25430;-75
2022/03/15 06:45:46;;;;;;;68.47;34.25;;;;;;;3.14;58.09;101646.91;1740574;81;25594;-76
2022/03/15 06:48:14;;;;;;;83.82;39.60;;;;;;;3.33;57.25;101658.38;1757673;81;25915;-76
2022/03/15 06:50:42;;;;;;;67.60;37.67;;;;;;;3.58;57.69;101661.44;1757910;81;25540;-76
2022/03/15 06:53:09;;;;;;;73.72;36.88;;;;;;;3.85;56.98;101661.84;1757898;81;27425;-75
2022/03/15 06:55:35;;;;;;;63.25;32.88;;;;;;;4.18;57.06;101665.83;1757990;81;25544;-75
2022/03/15 06:58:01;;;;;;;71.92;37.93;;;;;;;4.45;56.54;101664.84;1740888;81;25597;-74
2022/03/15 07:00:28;;;;;;;68.22;35.55;;;;;;;4.77;56.38;101668.48;1757906;81;26490;-75
2022/03/15 07:02:54;;;;;;;65.05;33.70;;;;;;;5.08;55.25;101664.54;1758013;81;25409;-75
2022/03/15 07:05:21;;;;;;;73.15;37.42;;;;;;;5.22;54.45;101661.05;1757939;81;27096;-75
2022/03/15 07:07:47;;;;;;;70.85;36.45;;;;;;;5.46;54.26;101660.41;1757850;81;25557;-75
2022/03/15 07:10:17;;;;;;;65.08;35.48;;;;;;;5.81;54.78;101664.78;1757975;81;25618;-74
2022/03/15 07:12:42;;;;;;;55.67;33.65;;;;;;;6.11;53.16;101653.75;1757629;81;26385;-76
2022/03/15 07:15:10;;;;;;;72.40;35.98;;;;;;;6.35;52.96;101661.59;1757983;81;25393;-75
2022/03/15 07:17:37;;;;;;;70.92;35.08;;;;;;;6.73;52.88;101654.06;1757947;81;27392;-75
2022/03/15 07:20:06;;;;;;;60.70;32.67;;;;;;;7.16;52.59;101658.33;1757917;81;25395;-75
2022/03/15 07:22:32;;;;;;;61.48;32.95;;;;;;;7.59;52.04;101655.80;1758265;81;25643;-76
2022/03/15 07:24:58;;;;;;;63.48;34.00;;;;;;;8.00;51.98;101656.13;1740604;81;26486;-76
2022/03/15 07:27:24;;;;;;;63.30;34.48;;;;;;;8.36;51.17;101659.89;1757946;81;25616;-76
2022/03/15 07:29:50;;;;;;;63.38;34.55;;;;;;;8.62;48.95;101666.81;1757903;81;27337;-76
2022/03/15 07:32:17;;;;;;;61.60;35.05;;;;;;;8.73;48.91;101669.01;1740593;81;25559;-76
2022/03/15 07:34:43;;;;;;;60.03;33.20;;;;;;;9.08;48.58;101669.70;1757935;81;25421;-76
2022/03/15 07:37:10;;;;;;;66.67;34.20;;;;;;;9.37;47.85;101667.89;1757758;81;26455;-76
2022/03/15 07:39:37;;;;;;;58.52;32.55;;;;;;;9.49;46.91;101667.09;1757956;81;25618;-76
2022/03/15 07:42:04;;;;;;;61.73;33.55;;;;;;;9.51;46.18;101671.67;1757861;81;27135;-76
2022/03/15 07:44:30;;;;;;;60.40;33.33;;;;;;;9.65;46.52;101667.94;1757824;81;25398;-76
2022/03/15 07:46:57;;;;;;;57.08;31.97;;;;;;;9.71;45.62;101679.00;1758178;81;25666;-76
2022/03/15 07:49:23;;;;;;;52.35;31.55;;;;;;;9.74;46.34;101677.67;1760854;81;25926;-76
2022/03/15 07:51:50;;;;;;;57.73;33.23;;;;;;;10.22;46.30;101682.79;1760870;81;25146;-76
2022/03/15 07:54:17;;;;;;;60.35;34.18;;;;;;;10.75;46.34;101676.46;1760903;81;27565;-75
2022/03/15 07:56:43;;;;;;;65.42;36.20;;;;;;;11.62;45.81;101679.81;1760746;81;25747;-76
2022/03/15 07:59:10;;;;;;;54.30;32.55;;;;;;;12.36;44.90;101675.67;1760875;81;25387;-76
2022/03/15 08:01:37;;;;;;;62.93;34.05;;;;;;;12.95;43.59;101675.80;1760800;81;25931;-76
2022/03/15 08:04:04;;;;;;;54.95;32.50;;;;;;;13.37;42.70;101671.47;1760827;81;25618;-76
2022/03/15 08:06:30;;;;;;;53.23;33.42;;;;;;;13.56;41.52;101675.53;1760862;81;28046;-76
2022/03/15 08:08:58;;;;;;;55.12;33.25;;;;;;;13.67;41.40;101680.81;1760850;81;25460;-76
2022/03/15 08:11:26;;;;;;;50.60;32.80;;;;;;;13.81;41.34;101678.41;1761053;81;25430;-76
2022/03/15 08:13:54;;;;;;;55.12;32.83;;;;;;;13.99;41.79;101676.73;1760810;81;25914;-76
2022/03/15 08:16:23;;;;;;;55.70;30.52;;;;;;;14.30;40.77;101672.14;1760872;81;25371;-76
2022/03/15 08:18:51;;;;;;;52.50;32.07;;;;;;;14.67;40.52;101676.36;1761122;81;27313;-76
2022/03/15 08:21:19;;;;;;;48.87;30.52;;;;;;;14.69;39.36;101669.52;1760779;81;25595;-76
2022/03/15 08:23:46;;;;;;;52.95;31.90;;;;;;;14.30;38.86;101670.78;1760873;81;25448;-76
2022/03/15 08:26:14;;;;;;;48.08;30.57;;;;;;;13.84;39.07;101690.59;1760795;81;26836;-75
2022/03/15 08:28:42;;;;;;;47.88;29.63;;;;;;;13.74;40.32;101690.75;1760833;81;25628;-75
2022/03/15 08:31:08;;;;;;;56.65;28.67;;;;;;;13.99;39.67;101680.02;1760843;81;27352;-75
2022/03/15 08:33:35;;;;;;;46.48;30.02;;;;;;;13.77;39.35;101673.84;1760692;81;25768;-75
2022/03/15 08:36:01;;;;;;;47.25;29.67;;;;;;;13.54;40.12;101672.87;1760841;81;25445;-76
2022/03/15 08:38:29;;;;;;;50.63;29.05;;;;;;;13.67;40.12;101674.81;1760802;81;25925;-76
2022/03/15 08:40:56;;;;;;;52.03;28.87;;;;;;;13.63;40.39;101671.08;1760900;81;25391;-76
2022/03/15 08:43:24;;;;;;;42.62;26.70;;;;;;;13.67;40.09;101669.38;1760825;81;27368;-76
2022/03/15 08:45:52;;;;;;;47.65;28.85;;;;;;;13.36;39.82;101663.05;1760722;81;25393;-76
2022/03/15 08:48:19;;;;;;;46.55;27.75;;;;;;;12.85;40.02;101659.08;1739204;81;25741;-76
2022/03/15 08:50:46;;;;;;;43.13;27.07;;;;;;;12.47;40.53;101664.42;1768390;81;26763;-77
2022/03/15 08:53:13;;;;;;;58.30;28.20;;;;;;;12.14;41.09;101662.86;1768426;81;25590;-76
2022/03/15 08:55:41;;;;;;;54.58;28.10;;;;;;;12.05;41.68;101669.98;1768399;81;27373;-77
2022/03/15 08:58:08;;;;;;;43.08;27.20;;;;;;;11.85;41.69;101663.35;1768350;81;25550;-76
2022/03/15 09:00:35;;;;;;;50.10;28.50;;;;;;;11.50;42.05;101667.41;1768402;81;25618;-76
2022/03/15 09:03:01;;;;;;;46.53;26.82;;;;;;;11.16;42.51;101666.00;1768400;81;25929;-77
2022/03/15 09:05:28;;;;;;;47.23;25.68;;;;;;;10.89;43.06;101667.75;1768422;81;25617;-76
2022/03/15 09:07:54;;;;;;;49.23;27.20;;;;;;;10.58;43.83;101663.25;1768418;81;27436;-76
2022/03/15 09:10:23;;;;;;;42.55;26.45;;;;;;;10.38;44.34;101656.00;1768379;81;25406;-75
2022/03/15 09:12:52;;;;;;;45.08;25.80;;;;;;;10.30;45.04;101653.84;1768513;81;25573;-75
2022/03/15 09:15:20;;;;;;;45.33;25.15;;;;;;;10.21;45.73;101650.06;1768516;81;26475;-76
2022/03/15 09:17:46;;;;;;;41.33;23.75;;;;;;;10.15;46.06;101651.97;1768423;81;25606;-76
2022/03/15 09:20:13;;;;;;;34.85;22.37;;;;;;;10.08;46.46;101653.59;1768396;81;27326;-76
2022/03/15 09:22:40;;;;;;;30.08;19.27;;;;;;;10.08;47.24;101650.90;1768300;81;25455;-76
2022/03/15 09:25:08;;;;;;;32.85;20.15;;;;;;;10.12;47.82;101650.36;1768396;81;25614;-76
2022/03/15 09:27:35;;;;;;;30.95;17.55;;;;;;;10.07;48.70;101641.16;1768361;81;26555;-76
2022/03/15 09:30:01;;;;;;;32.83;17.90;;;;;;;10.04;48.64;101645.75;1768432;81;25210;-76
2022/03/15 09:32:28;;;;;;;29.37;18.23;;;;;;;10.03;49.23;101646.84;1768381;80;27841;-75
2022/03/15 09:34:55;;;;;;;29.20;18.07;;;;;;;9.96;50.25;101643.62;1742498;81;25548;-76
2022/03/15 09:37:23;;;;;;;25.82;16.27;;;;;;;9.90;49.90;101641.44;1768434;81;25457;-76
2022/03/15 09:39:52;;;;;;;24.82;16.25;;;;;;;9.98;50.17;101642.80;1768320;81;26624;-76
2022/03/15 09:42:22;;;;;;;23.62;16.65;;;;;;;10.10;50.37;101639.81;1742942;81;25543;-75
2022/03/15 09:44:49;;;;;;;25.08;16.42;;;;;;;10.13;50.71;101649.26;1768377;81;27896;-76
2022/03/15 09:47:17;;;;;;;27.07;16.90;;;;;;;10.02;50.35;101650.62;1768263;81;25538;-75
2022/03/15 09:49:47;;;;;;;29.00;18.27;;;;;;;10.04;50.73;101643.05;1761053;81;25569;-72
2022/03/15 09:52:15;;;;;;;30.40;18.55;;;;;;;10.14;50.83;101651.69;1760797;81;26030;-73
2022/03/15 09:54:42;;;;;;;25.90;16.30;;;;;;;10.27;50.90;101650.33;1713678;82;25449;-73
2022/03/15 09:57:09;;;;;;;24.37;16.77;;;;;;;10.37;50.78;101658.45;1717884;83;27350;-73
2022/03/15 09:59:35;;;;;;;23.00;14.05;;;;;;;10.30;51.08;101657.91;1718046;83;25643;-74
2022/03/15 10:02:02;;;;;;;20.70;13.43;;;;;;;10.12;50.92;101645.75;1718214;83;25644;-72
2022/03/15 10:04:29;;;;;;;22.45;14.60;;;;;;;10.06;51.33;101657.13;1718045;83;25946;-73
2022/03/15 10:06:56;;;;;;;24.10;14.50;;;;;;;9.95;52.04;101661.45;1691691;83;25333;-73
2022/03/15 10:09:27;;;;;;;24.75;14.47;;;;;;;9.85;51.70;101663.06;1717813;83;27896;-75
2022/03/15 10:11:54;;;;;;;23.87;15.60;;;;;;;9.78;51.95;101655.77;1717631;83;25466;-73
2022/03/15 10:14:21;;;;;;;23.27;15.10;;;;;;;9.70;52.62;101658.48;1717752;82;25550;-74
2022/03/15 10:16:50;;;;;;;28.32;14.95;;;;;;;9.78;52.46;101667.13;1717504;83;25914;-75
2022/03/15 10:19:18;;;;;;;20.75;13.32;;;;;;;9.78;52.59;101665.78;1718006;83;25391;-74
2022/03/15 10:21:54;;;;;;;55.63;16.15;;;;;;;9.76;52.77;101663.89;1717692;83;27312;-74
2022/03/15 10:24:27;;;;;;;19.80;13.70;;;;;;;9.79;52.78;101664.16;1717532;83;25901;-72
2022/03/15 10:27:00;;;;;;;20.68;13.58;;;;;;;9.84;52.76;101653.87;1717783;83;25558;-73
2022/03/15 10:29:30;;;;;;;22.70;14.03;;;;;;;9.81;52.82;101655.78;1717787;83;26470;-73
2022/03/15 10:31:57;;;;;;;24.35;14.03;;;;;;;9.77;52.97;101654.69;1717661;83;25804;-73
2022/03/15 10:34:28;;;;;;;22.37;13.28;;;;;;;9.70;53.15;101649.55;1717772;83;27309;-73
2022/03/15 10:36:56;;;;;;;20.32;13.48;;;;;;;9.69;53.22;101646.05;1717660;83;25730;-74
2022/03/15 10:39:25;;;;;;;22.35;13.30;;;;;;;9.67;53.48;101641.98;1717581;83;25674;-73
2022/03/15 10:41:57;;;;;;;19.93;13.77;;;;;;;9.68;53.76;101640.91;1717952;83;25919;-73
2022/03/15 10:44:36;;;;;;;26.82;13.83;;;;;;;9.74;54.06;101634.44;1717492;83;25478;-73
2022/03/15 10:47:15;;;;;;;21.42;13.95;;;;;;;9.81;53.96;101641.73;1717692;83;27275;-74
2022/03/15 10:49:54;;;;;;;22.62;15.45;;;;;;;9.89;53.95;101633.59;1700900;83;25562;-75
2022/03/15 10:52:40;;;;;;;18.87;12.95;;;;;;;9.92;53.91;101639.82;1697942;84;25619;-73
2022/03/15 10:55:28;;;;;;;22.22;14.33;;;;;;;10.04;54.29;101626.83;1697647;83;27039;-73
2022/03/15 10:57:59;;;;;;;24.10;13.72;;;;;;;10.20;53.73;101628.98;1697695;84;25722;-74
2022/03/15 11:00:33;;;;;;;24.72;15.13;;;;;;;10.15;53.60;101622.23;1697552;84;27511;-73
2022/03/15 11:03:00;;;;;;;24.77;15.60;;;;;;;10.25;53.80;101615.45;1697749;84;25619;-73
2022/03/15 11:05:33;;;;;;;20.82;15.28;;;;;;;10.43;53.70;101609.20;1697825;83;25419;-73
2022/03/15 11:08:13;;;;;;;22.50;16.05;;;;;;;10.79;54.25;101608.50;1697694;84;25936;-74
2022/03/15 11:10:46;;;;;;;25.35;15.72;;;;;;;11.21;53.94;101605.03;1697948;84;25742;-73
2022/03/15 11:13:13;;;;;;;91.60;84.62;;;;;;;11.49;52.81;101604.02;1697743;84;27804;-73
2022/03/15 11:15:48;;;;;;;24.00;16.82;;;;;;;11.63;52.12;101594.69;1697355;84;25684;-73